sensor_id;sensor_type;location;lat;lon;timestamp;pressure;altitude;pressure_sealevel;temperature;humidity
71145;BME280;58812;47.698;17.726;2023-03-25T00:00:57;99525.31;;;12.55;100.00
71145;BME280;58812;47.698;17.726;2023-03-25T00:03:24;99533.44;;;12.47;100.00
71145;BME280;58812;47.698;17.726;2023-03-25T00:05:54;99536.66;;;12.42;100.00
71145;BME280;58812;47.698;17.726;2023-03-25T00:08:20;99534.66;;;12.36;100.00
71145;BME280;58812;47.698;17.726;2023-03-25T00:10:53;99535.00;;;12.33;100.00
71145;BME280;58812;47.698;17.726;2023-03-25T00:13:19;99530.66;;;12.32;100.00
71145;BME280;58812;47.698;17.726;2023-03-25T00:15:46;99535.69;;;12.27;100.00
71145;BME280;58812;47.698;17.726;2023-03-25T00:18:12;99531.75;;;12.15;100.00
71145;BME280;58812;47.698;17.726;2023-03-25T00:20:38;99536.13;;;12.08;100.00
71145;BME280;58812;47.698;17.726;2023-03-25T00:23:06;99533.50;;;11.91;100.00
71145;BME280;58812;47.698;17.726;2023-03-25T00:25:31;99533.88;;;11.88;100.00
71145;BME280;58812;47.698;17.726;2023-03-25T00:27:58;99539.41;;;11.87;100.00
71145;BME280;58812;47.698;17.726;2023-03-25T00:30:24;99542.44;;;11.75;100.00
71145;BME280;58812;47.698;17.726;2023-03-25T00:32:50;99554.81;;;11.76;100.00
71145;BME280;58812;47.698;17.726;2023-03-25T00:35:21;99564.72;;;11.76;100.00
71145;BME280;58812;47.698;17.726;2023-03-25T00:37:50;99558.00;;;11.72;100.00
71145;BME280;58812;47.698;17.726;2023-03-25T00:40:25;99564.06;;;11.66;100.00
71145;BME280;58812;47.698;17.726;2023-03-25T00:42:55;99571.63;;;11.62;100.00
71145;BME280;58812;47.698;17.726;2023-03-25T00:45:21;99566.75;;;11.66;100.00
71145;BME280;58812;47.698;17.726;2023-03-25T00:47:47;99563.06;;;11.59;100.00
71145;BME280;58812;47.698;17.726;2023-03-25T00:50:14;99571.94;;;11.59;100.00
71145;BME280;58812;47.698;17.726;2023-03-25T00:52:39;99560.72;;;11.56;100.00
71145;BME280;58812;47.698;17.726;2023-03-25T00:55:06;99566.06;;;11.56;100.00
71145;BME280;58812;47.698;17.726;2023-03-25T00:57:32;99555.06;;;11.50;100.00
71145;BME280;58812;47.698;17.726;2023-03-25T00:59:57;99549.84;;;11.49;100.00
71145;BME280;58812;47.698;17.726;2023-03-25T01:02:23;99545.84;;;11.45;100.00
71145;BME280;58812;47.698;17.726;2023-03-25T01:04:49;99533.78;;;11.41;100.00
71145;BME280;58812;47.698;17.726;2023-03-25T01:07:18;99536.66;;;11.39;100.00
71145;BME280;58812;47.698;17.726;2023-03-25T01:09:45;99540.97;;;11.32;100.00
71145;BME280;58812;47.698;17.726;2023-03-25T01:12:11;99540.97;;;11.32;100.00
71145;BME280;58812;47.698;17.726;2023-03-25T01:14:37;99541.66;;;11.34;100.00
71145;BME280;58812;47.698;17.726;2023-03-25T01:17:02;99527.91;;;11.37;100.00
71145;BME280;58812;47.698;17.726;2023-03-25T01:19:28;99531.97;;;11.33;100.00
71145;BME280;58812;47.698;17.726;2023-03-25T01:21:53;99528.78;;;11.30;100.00
71145;BME280;58812;47.698;17.726;2023-03-25T01:24:19;99531.62;;;11.28;100.00
71145;BME280;58812;47.698;17.726;2023-03-25T01:26:45;99528.94;;;11.28;100.00
71145;BME280;58812;47.698;17.726;2023-03-25T01:29:13;99530.47;;;11.22;100.00
71145;BME280;58812;47.698;17.726;2023-03-25T01:31:39;99521.72;;;11.20;100.00
71145;BME280;58812;47.698;17.726;2023-03-25T01:34:06;99522.59;;;11.21;100.00
71145;BME280;58812;47.698;17.726;2023-03-25T01:36:32;99514.38;;;11.22;100.00
71145;BME280;58812;47.698;17.726;2023-03-25T01:39:00;99512.53;;;11.23;100.00
71145;BME280;58812;47.698;17.726;2023-03-25T01:41:28;99509.84;;;11.23;100.00
71145;BME280;58812;47.698;17.726;2023-03-25T01:44:08;99501.31;;;11.19;100.00
71145;BME280;58812;47.698;17.726;2023-03-25T01:46:37;99505.16;;;11.25;100.00
71145;BME280;58812;47.698;17.726;2023-03-25T01:49:05;99502.16;;;11.28;100.00
71145;BME280;58812;47.698;17.726;2023-03-25T01:51:37;99499.47;;;11.20;100.00
71145;BME280;58812;47.698;17.726;2023-03-25T01:54:05;99495.81;;;11.21;100.00
71145;BME280;58812;47.698;17.726;2023-03-25T01:56:34;99493.78;;;11.23;100.00
71145;BME280;58812;47.698;17.726;2023-03-25T01:59:04;99499.47;;;11.20;100.00
71145;BME280;58812;47.698;17.726;2023-03-25T02:01:31;99491.94;;;11.23;100.00
71145;BME280;58812;47.698;17.726;2023-03-25T02:03:57;99496.97;;;11.27;100.00
71145;BME280;58812;47.698;17.726;2023-03-25T02:06:34;99482.56;;;11.28;100.00
71145;BME280;58812;47.698;17.726;2023-03-25T02:09:03;99489.41;;;11.30;100.00
71145;BME280;58812;47.698;17.726;2023-03-25T02:11:31;99484.88;;;11.31;100.00
71145;BME280;58812;47.698;17.726;2023-03-25T02:14:02;99489.78;;;11.27;100.00
71145;BME280;58812;47.698;17.726;2023-03-25T02:19:48;99484.41;;;11.27;100.00
71145;BME280;58812;47.698;17.726;2023-03-25T02:36:45;99490.25;;;11.14;100.00
71145;BME280;58812;47.698;17.726;2023-03-25T02:39:39;99481.56;;;11.12;100.00
71145;BME280;58812;47.698;17.726;2023-03-25T02:42:21;99478.56;;;11.07;100.00
71145;BME280;58812;47.698;17.726;2023-03-25T02:45:00;99491.13;;;11.07;100.00
71145;BME280;58812;47.698;17.726;2023-03-25T02:47:35;99492.97;;;11.06;100.00
71145;BME280;58812;47.698;17.726;2023-03-25T02:50:06;99493.78;;;11.07;100.00
71145;BME280;58812;47.698;17.726;2023-03-25T02:52:37;99506.03;;;11.09;100.00
71145;BME280;58812;47.698;17.726;2023-03-25T02:55:06;99495.12;;;11.11;100.00
71145;BME280;58812;47.698;17.726;2023-03-25T02:57:37;99495.12;;;11.11;100.00
71145;BME280;58812;47.698;17.726;2023-03-25T03:00:06;99497.63;;;11.12;100.00
71145;BME280;58812;47.698;17.726;2023-03-25T03:02:35;99504.66;;;11.13;100.00
71145;BME280;58812;47.698;17.726;2023-03-25T03:05:01;99502.16;;;11.12;100.00
71145;BME280;58812;47.698;17.726;2023-03-25T03:07:30;99499.16;;;11.07;100.00
71145;BME280;58812;47.698;17.726;2023-03-25T03:10:08;99498.13;;;11.08;100.00
71145;BME280;58812;47.698;17.726;2023-03-25T03:18:08;99511.88;;;10.96;100.00
71145;BME280;58812;47.698;17.726;2023-03-25T03:23:48;99514.56;;;10.80;100.00
71145;BME280;58812;47.698;17.726;2023-03-25T03:26:25;99508.16;;;10.73;100.00
71145;BME280;58812;47.698;17.726;2023-03-25T03:29:19;99512.19;;;10.69;100.00
71145;BME280;58812;47.698;17.726;2023-03-25T03:34:26;99529.41;;;10.66;100.00
71145;BME280;58812;47.698;17.726;2023-03-25T03:36:56;99528.59;;;10.66;100.00
71145;BME280;58812;47.698;17.726;2023-03-25T03:39:32;99521.72;;;10.63;100.00
71145;BME280;58812;47.698;17.726;2023-03-25T03:42:04;99532.62;;;10.62;100.00
71145;BME280;58812;47.698;17.726;2023-03-25T03:44:34;99539.81;;;10.61;100.00
71145;BME280;58812;47.698;17.726;2023-03-25T03:47:11;99541.31;;;10.64;100.00
71145;BME280;58812;47.698;17.726;2023-03-25T03:49:41;99537.31;;;10.68;100.00
71145;BME280;58812;47.698;17.726;2023-03-25T03:52:29;99535.28;;;10.70;100.00
71145;BME280;58812;47.698;17.726;2023-03-25T03:55:00;99540.28;;;10.73;100.00
71145;BME280;58812;47.698;17.726;2023-03-25T04:04:59;99549.50;;;10.70;100.00
71145;BME280;58812;47.698;17.726;2023-03-25T04:07:32;99545.16;;;10.69;100.00
71145;BME280;58812;47.698;17.726;2023-03-25T04:10:10;99538.97;;;10.69;100.00
71145;BME280;58812;47.698;17.726;2023-03-25T04:12:40;99538.81;;;10.70;100.00
71145;BME280;58812;47.698;17.726;2023-03-25T04:15:08;99536.97;;;10.71;100.00
71145;BME280;58812;47.698;17.726;2023-03-25T04:17:33;99537.97;;;10.70;100.00
71145;BME280;58812;47.698;17.726;2023-03-25T04:19:59;99531.59;;;10.71;100.00
71145;BME280;58812;47.698;17.726;2023-03-25T04:22:26;99533.28;;;10.72;100.00
71145;BME280;58812;47.698;17.726;2023-03-25T04:24:51;99528.25;;;10.69;100.00
71145;BME280;58812;47.698;17.726;2023-03-25T04:27:20;99528.25;;;10.69;100.00
71145;BME280;58812;47.698;17.726;2023-03-25T04:29:49;99526.59;;;10.68;100.00
71145;BME280;58812;47.698;17.726;2023-03-25T04:32:16;99524.06;;;10.66;100.00
71145;BME280;58812;47.698;17.726;2023-03-25T04:34:42;99521.25;;;10.68;100.00
71145;BME280;58812;47.698;17.726;2023-03-25T04:37:07;99532.94;;;10.67;100.00
71145;BME280;58812;47.698;17.726;2023-03-25T04:39:33;99528.59;;;10.66;100.00
71145;BME280;58812;47.698;17.726;2023-03-25T04:41:59;99540.28;;;10.65;100.00
71145;BME280;58812;47.698;17.726;2023-03-25T04:44:26;99528.75;;;10.64;100.00
71145;BME280;58812;47.698;17.726;2023-03-25T04:46:53;99540.66;;;10.62;100.00
71145;BME280;58812;47.698;17.726;2023-03-25T04:49:21;99539.62;;;10.63;100.00
71145;BME280;58812;47.698;17.726;2023-03-25T04:51:48;99547.66;;;10.63;100.00
71145;BME280;58812;47.698;17.726;2023-03-25T04:54:16;99547.31;;;10.58;100.00
71145;BME280;58812;47.698;17.726;2023-03-25T04:56:41;99550.16;;;10.56;100.00
71145;BME280;58812;47.698;17.726;2023-03-25T04:59:07;99548.81;;;10.52;100.00
71145;BME280;58812;47.698;17.726;2023-03-25T05:01:36;99553.63;;;10.49;100.00
71145;BME280;58812;47.698;17.726;2023-03-25T05:04:07;99557.31;;;10.48;100.00
71145;BME280;58812;47.698;17.726;2023-03-25T05:06:38;99563.38;;;10.50;100.00
71145;BME280;58812;47.698;17.726;2023-03-25T05:09:05;99556.47;;;10.47;100.00
71145;BME280;58812;47.698;17.726;2023-03-25T05:11:33;99570.03;;;10.46;100.00
71145;BME280;58812;47.698;17.726;2023-03-25T05:13:58;99569.88;;;10.47;100.00
71145;BME280;58812;47.698;17.726;2023-03-25T05:16:24;99568.72;;;10.50;100.00
71145;BME280;58812;47.698;17.726;2023-03-25T05:18:50;99568.72;;;10.50;100.00
71145;BME280;58812;47.698;17.726;2023-03-25T05:21:16;99562.66;;;10.48;100.00
71145;BME280;58812;47.698;17.726;2023-03-25T05:23:42;99567.53;;;10.52;100.00
71145;BME280;58812;47.698;17.726;2023-03-25T05:26:08;99560.34;;;10.53;100.00
71145;BME280;58812;47.698;17.726;2023-03-25T05:28:34;99564.03;;;10.52;100.00
71145;BME280;58812;47.698;17.726;2023-03-25T05:31:00;99565.69;;;10.53;100.00
71145;BME280;58812;47.698;17.726;2023-03-25T05:33:38;99571.06;;;10.53;100.00
71145;BME280;58812;47.698;17.726;2023-03-25T05:36:13;99585.09;;;10.55;100.00
71145;BME280;58812;47.698;17.726;2023-03-25T05:38:40;99574.37;;;10.55;100.00
71145;BME280;58812;47.698;17.726;2023-03-25T05:41:08;99579.44;;;10.58;100.00
71145;BME280;58812;47.698;17.726;2023-03-25T05:43:39;99575.91;;;10.57;100.00
71145;BME280;58812;47.698;17.726;2023-03-25T05:46:04;99579.09;;;10.61;100.00
71145;BME280;58812;47.698;17.726;2023-03-25T05:48:31;99583.13;;;10.65;100.00
71145;BME280;58812;47.698;17.726;2023-03-25T05:51:05;99585.97;;;10.72;100.00
71145;BME280;58812;47.698;17.726;2023-03-25T05:53:30;99586.50;;;10.75;100.00
71145;BME280;58812;47.698;17.726;2023-03-25T05:55:58;99585.84;;;10.81;100.00
71145;BME280;58812;47.698;17.726;2023-03-25T05:58:23;99591.19;;;10.81;100.00
71145;BME280;58812;47.698;17.726;2023-03-25T06:00:49;99591.19;;;10.81;100.00
71145;BME280;58812;47.698;17.726;2023-03-25T06:03:17;99589.19;;;10.83;99.72
71145;BME280;58812;47.698;17.726;2023-03-25T06:05:42;99598.22;;;10.90;100.00
71145;BME280;58812;47.698;17.726;2023-03-25T06:08:08;99591.91;;;10.91;99.87
71145;BME280;58812;47.698;17.726;2023-03-25T06:10:33;99587.03;;;10.95;99.11
71145;BME280;58812;47.698;17.726;2023-03-25T06:12:59;99586.88;;;11.05;98.69
71145;BME280;58812;47.698;17.726;2023-03-25T06:15:24;99593.09;;;11.21;97.62
71145;BME280;58812;47.698;17.726;2023-03-25T06:18:03;99602.94;;;11.54;95.18
71145;BME280;58812;47.698;17.726;2023-03-25T06:20:28;99595.53;;;11.96;92.65
71145;BME280;58812;47.698;17.726;2023-03-25T06:22:54;99608.06;;;12.12;90.18
71145;BME280;58812;47.698;17.726;2023-03-25T06:25:19;99614.56;;;12.26;91.18
71145;BME280;58812;47.698;17.726;2023-03-25T06:27:47;99602.84;;;12.19;90.25
71145;BME280;58812;47.698;17.726;2023-03-25T06:30:20;99604.53;;;12.12;90.68
71145;BME280;58812;47.698;17.726;2023-03-25T06:32:46;99610.59;;;11.97;90.03
71145;BME280;58812;47.698;17.726;2023-03-25T06:35:17;99619.53;;;11.82;90.23
71145;BME280;58812;47.698;17.726;2023-03-25T06:37:45;99615.00;;;11.74;90.37
71145;BME280;58812;47.698;17.726;2023-03-25T06:40:12;99611.31;;;11.67;91.03
71145;BME280;58812;47.698;17.726;2023-03-25T06:42:38;99615.34;;;11.63;91.24
71145;BME280;58812;47.698;17.726;2023-03-25T06:45:04;99630.44;;;11.64;91.24
71145;BME280;58812;47.698;17.726;2023-03-25T06:47:32;99629.59;;;11.63;89.90
71145;BME280;58812;47.698;17.726;2023-03-25T06:49:58;99628.25;;;11.59;89.71
71145;BME280;58812;47.698;17.726;2023-03-25T06:52:23;99630.59;;;11.62;90.33
71145;BME280;58812;47.698;17.726;2023-03-25T06:54:49;99638.16;;;11.50;88.93
71145;BME280;58812;47.698;17.726;2023-03-25T06:57:14;99639.81;;;11.52;89.60
71145;BME280;58812;47.698;17.726;2023-03-25T06:59:39;99649.84;;;11.49;88.48
71145;BME280;58812;47.698;17.726;2023-03-25T07:02:05;99644.81;;;11.55;90.02
71145;BME280;58812;47.698;17.726;2023-03-25T07:04:31;99639.59;;;12.10;88.39
71145;BME280;58812;47.698;17.726;2023-03-25T07:06:56;99655.53;;;12.90;83.76
71145;BME280;58812;47.698;17.726;2023-03-25T07:09:22;99649.47;;;12.96;82.08
71145;BME280;58812;47.698;17.726;2023-03-25T07:11:47;99645.47;;;13.23;80.86
71145;BME280;58812;47.698;17.726;2023-03-25T07:14:12;99647.22;;;13.77;78.95
71145;BME280;58812;47.698;17.726;2023-03-25T07:16:38;99661.50;;;13.77;76.44
71145;BME280;58812;47.698;17.726;2023-03-25T07:19:03;99668.78;;;13.69;77.06
71145;BME280;58812;47.698;17.726;2023-03-25T07:21:29;99667.94;;;13.53;75.87
71145;BME280;58812;47.698;17.726;2023-03-25T07:23:54;99659.50;;;13.94;74.66
71145;BME280;58812;47.698;17.726;2023-03-25T07:26:20;99652.25;;;14.47;71.47
71145;BME280;58812;47.698;17.726;2023-03-25T07:28:45;99659.69;;;14.96;71.75
71145;BME280;58812;47.698;17.726;2023-03-25T07:31:14;99661.94;;;14.19;70.69
71145;BME280;58812;47.698;17.726;2023-03-25T07:33:40;99663.41;;;13.69;73.92
71145;BME280;58812;47.698;17.726;2023-03-25T07:36:07;99657.09;;;14.29;72.31
71145;BME280;58812;47.698;17.726;2023-03-25T07:38:35;99651.53;;;14.45;72.82
71145;BME280;58812;47.698;17.726;2023-03-25T07:41:06;99654.62;;;14.42;71.11
71145;BME280;58812;47.698;17.726;2023-03-25T07:43:31;99647.38;;;14.42;71.21
71145;BME280;58812;47.698;17.726;2023-03-25T07:45:57;99653.75;;;14.86;69.69
71145;BME280;58812;47.698;17.726;2023-03-25T07:48:23;99643.84;;;15.29;67.51
71145;BME280;58812;47.698;17.726;2023-03-25T07:50:50;99658.81;;;15.74;66.79
71145;BME280;58812;47.698;17.726;2023-03-25T07:53:16;99657.53;;;15.49;63.51
71145;BME280;58812;47.698;17.726;2023-03-25T07:55:42;99640.59;;;15.12;64.67
71145;BME280;58812;47.698;17.726;2023-03-25T07:58:09;99639.91;;;15.53;63.42
71145;BME280;58812;47.698;17.726;2023-03-25T08:00:35;99643.00;;;14.56;65.81
71145;BME280;58812;47.698;17.726;2023-03-25T08:03:00;99640.31;;;15.50;63.35
71145;BME280;58812;47.698;17.726;2023-03-25T08:05:26;99627.53;;;16.08;60.88
71145;BME280;58812;47.698;17.726;2023-03-25T08:07:52;99630.69;;;15.41;59.83
71145;BME280;58812;47.698;17.726;2023-03-25T08:10:18;99620.34;;;14.51;62.44
71145;BME280;58812;47.698;17.726;2023-03-25T08:12:44;99631.97;;;15.45;60.34
71145;BME280;58812;47.698;17.726;2023-03-25T08:15:10;99626.06;;;15.56;58.97
71145;BME280;58812;47.698;17.726;2023-03-25T08:17:36;99629.22;;;14.81;62.46
71145;BME280;58812;47.698;17.726;2023-03-25T08:20:03;99626.84;;;14.56;63.35
71145;BME280;58812;47.698;17.726;2023-03-25T08:22:30;99622.09;;;14.29;64.68
71145;BME280;58812;47.698;17.726;2023-03-25T08:24:55;99628.00;;;14.47;64.39
71145;BME280;58812;47.698;17.726;2023-03-25T08:27:21;99626.00;;;15.07;62.19
71145;BME280;58812;47.698;17.726;2023-03-25T08:29:46;99621.56;;;15.63;60.57
71145;BME280;58812;47.698;17.726;2023-03-25T08:32:19;99625.63;;;15.74;59.88
71145;BME280;58812;47.698;17.726;2023-03-25T08:34:45;99633.69;;;15.10;60.33
71145;BME280;58812;47.698;17.726;2023-03-25T08:37:10;99617.81;;;14.79;61.05
71145;BME280;58812;47.698;17.726;2023-03-25T08:39:36;99620.84;;;15.12;60.12
71145;BME280;58812;47.698;17.726;2023-03-25T08:42:06;99617.19;;;15.84;58.84
71145;BME280;58812;47.698;17.726;2023-03-25T08:44:32;99625.44;;;16.45;56.26
71145;BME280;58812;47.698;17.726;2023-03-25T08:46:57;99622.97;;;16.50;54.64
71145;BME280;58812;47.698;17.726;2023-03-25T08:49:22;99628.41;;;16.98;52.56
71145;BME280;58812;47.698;17.726;2023-03-25T08:51:48;99643.16;;;16.54;48.62
71145;BME280;58812;47.698;17.726;2023-03-25T08:54:13;99635.37;;;16.72;48.31
71145;BME280;58812;47.698;17.726;2023-03-25T08:56:39;99637.88;;;16.74;48.90
71145;BME280;58812;47.698;17.726;2023-03-25T08:59:04;99638.66;;;16.68;48.25
71145;BME280;58812;47.698;17.726;2023-03-25T09:01:29;99649.19;;;16.97;46.67
71145;BME280;58812;47.698;17.726;2023-03-25T09:03:55;99649.94;;;17.52;48.36
71145;BME280;58812;47.698;17.726;2023-03-25T09:06:22;99650.31;;;17.29;46.71
71145;BME280;58812;47.698;17.726;2023-03-25T09:08:47;99650.16;;;17.44;46.57
71145;BME280;58812;47.698;17.726;2023-03-25T09:11:13;99649.91;;;16.71;47.45
71145;BME280;58812;47.698;17.726;2023-03-25T09:13:40;99643.19;;;16.19;50.55
71145;BME280;58812;47.698;17.726;2023-03-25T09:16:06;99639.19;;;16.15;49.40
71145;BME280;58812;47.698;17.726;2023-03-25T09:18:32;99641.03;;;15.80;51.38
71145;BME280;58812;47.698;17.726;2023-03-25T09:20:58;99645.19;;;15.61;52.89
71145;BME280;58812;47.698;17.726;2023-03-25T09:23:24;99658.09;;;15.87;49.82
71145;BME280;58812;47.698;17.726;2023-03-25T09:25:50;99656.13;;;16.31;48.49
71145;BME280;58812;47.698;17.726;2023-03-25T09:28:15;99662.25;;;15.83;48.69
71145;BME280;58812;47.698;17.726;2023-03-25T09:30:41;99650.72;;;15.96;49.45
71145;BME280;58812;47.698;17.726;2023-03-25T09:33:06;99667.97;;;15.73;48.90
71145;BME280;58812;47.698;17.726;2023-03-25T09:35:32;99661.28;;;15.69;49.66
71145;BME280;58812;47.698;17.726;2023-03-25T09:37:57;99651.59;;;16.03;50.97
71145;BME280;58812;47.698;17.726;2023-03-25T09:40:23;99661.84;;;16.14;50.27
71145;BME280;58812;47.698;17.726;2023-03-25T09:45:41;99646.81;;;16.40;48.56
71145;BME280;58812;47.698;17.726;2023-03-25T09:48:29;99662.50;;;16.23;50.21
71145;BME280;58812;47.698;17.726;2023-03-25T09:51:01;99665.00;;;15.68;50.33
71145;BME280;58812;47.698;17.726;2023-03-25T09:55:56;99648.56;;;15.42;52.86
71145;BME280;58812;47.698;17.726;2023-03-25T09:58:35;99658.91;;;15.02;52.85
71145;BME280;58812;47.698;17.726;2023-03-25T10:06:15;99659.38;;;15.27;53.78
71145;BME280;58812;47.698;17.726;2023-03-25T10:08:51;99649.31;;;15.14;53.24
71145;BME280;58812;47.698;17.726;2023-03-25T10:11:42;99651.75;;;15.31;52.18
71145;BME280;58812;47.698;17.726;2023-03-25T10:14:35;99659.47;;;15.55;52.20
71145;BME280;58812;47.698;17.726;2023-03-25T10:17:12;99665.19;;;15.24;50.49
71145;BME280;58812;47.698;17.726;2023-03-25T10:22:35;99672.91;;;15.70;51.24
71145;BME280;58812;47.698;17.726;2023-03-25T10:25:05;99668.81;;;15.59;52.71
71145;BME280;58812;47.698;17.726;2023-03-25T10:27:41;99686.41;;;15.70;52.08
71145;BME280;58812;47.698;17.726;2023-03-25T10:30:20;99679.59;;;15.16;50.41
71145;BME280;58812;47.698;17.726;2023-03-25T10:32:49;99680.63;;;15.15;51.25
71145;BME280;58812;47.698;17.726;2023-03-25T10:35:19;99686.03;;;15.15;53.03
71145;BME280;58812;47.698;17.726;2023-03-25T10:37:48;99690.72;;;14.92;53.28
71145;BME280;58812;47.698;17.726;2023-03-25T10:40:38;99689.94;;;14.77;53.62
71145;BME280;58812;47.698;17.726;2023-03-25T10:45:40;99688.69;;;14.64;51.82
71145;BME280;58812;47.698;17.726;2023-03-25T10:48:13;99693.09;;;14.65;50.67
71145;BME280;58812;47.698;17.726;2023-03-25T10:50:41;99697.72;;;14.72;51.50
71145;BME280;58812;47.698;17.726;2023-03-25T10:53:18;99695.94;;;14.79;51.17
71145;BME280;58812;47.698;17.726;2023-03-25T10:55:44;99689.37;;;14.66;50.79
71145;BME280;58812;47.698;17.726;2023-03-25T10:58:15;99677.81;;;14.43;50.17
71145;BME280;58812;47.698;17.726;2023-03-25T11:00:42;99690.19;;;14.52;49.32
71145;BME280;58812;47.698;17.726;2023-03-25T11:03:21;99692.03;;;14.37;49.64
71145;BME280;58812;47.698;17.726;2023-03-25T11:05:49;99689.16;;;14.38;50.46
71145;BME280;58812;47.698;17.726;2023-03-25T11:08:17;99679.81;;;14.49;50.10
71145;BME280;58812;47.698;17.726;2023-03-25T11:10:50;99689.84;;;14.55;51.65
71145;BME280;58812;47.698;17.726;2023-03-25T11:13:26;99690.25;;;14.44;50.59
71145;BME280;58812;47.698;17.726;2023-03-25T11:15:54;99690.75;;;14.62;50.75
71145;BME280;58812;47.698;17.726;2023-03-25T11:18:28;99687.87;;;14.64;50.33
71145;BME280;58812;47.698;17.726;2023-03-25T11:21:10;99698.09;;;14.68;50.21
71145;BME280;58812;47.698;17.726;2023-03-25T11:23:44;99695.59;;;14.52;50.00
71145;BME280;58812;47.698;17.726;2023-03-25T11:26:21;99681.84;;;14.47;49.70
71145;BME280;58812;47.698;17.726;2023-03-25T11:28:51;99695.87;;;14.57;49.77
71145;BME280;58812;47.698;17.726;2023-03-25T11:31:28;99679.22;;;14.24;50.36
71145;BME280;58812;47.698;17.726;2023-03-25T11:36:41;99683.66;;;14.32;49.31
71145;BME280;58812;47.698;17.726;2023-03-25T11:39:17;99688.31;;;14.38;49.84
71145;BME280;58812;47.698;17.726;2023-03-25T11:41:49;99683.56;;;14.40;49.18
71145;BME280;58812;47.698;17.726;2023-03-25T11:44:27;99673.25;;;14.29;48.47
71145;BME280;58812;47.698;17.726;2023-03-25T11:47:01;99676.62;;;14.31;48.05
71145;BME280;58812;47.698;17.726;2023-03-25T11:49:27;99672.81;;;14.25;48.04
71145;BME280;58812;47.698;17.726;2023-03-25T11:52:12;99670.50;;;14.37;48.27
71145;BME280;58812;47.698;17.726;2023-03-25T11:54:40;99670.03;;;14.63;48.78
71145;BME280;58812;47.698;17.726;2023-03-25T11:57:13;99663.09;;;14.54;47.94
71145;BME280;58812;47.698;17.726;2023-03-25T11:59:45;99658.41;;;14.77;48.41
71145;BME280;58812;47.698;17.726;2023-03-25T12:02:22;99653.00;;;14.92;47.83
71145;BME280;58812;47.698;17.726;2023-03-25T12:07:48;99639.50;;;15.49;46.77
71145;BME280;58812;47.698;17.726;2023-03-25T12:10:25;99641.97;;;15.51;46.69
71145;BME280;58812;47.698;17.726;2023-03-25T12:21:14;99632.16;;;15.65;44.71
71145;BME280;58812;47.698;17.726;2023-03-25T12:26:18;99632.38;;;15.42;45.31
71145;BME280;58812;47.698;17.726;2023-03-25T12:42:33;99608.22;;;15.12;40.36
71145;BME280;58812;47.698;17.726;2023-03-25T12:47:54;99603.22;;;15.09;42.33
71145;BME280;58812;47.698;17.726;2023-03-25T12:50:39;99610.97;;;14.98;41.66
71145;BME280;58812;47.698;17.726;2023-03-25T12:53:18;99598.94;;;14.79;40.38
71145;BME280;58812;47.698;17.726;2023-03-25T12:59:02;99600.81;;;14.63;40.23
71145;BME280;58812;47.698;17.726;2023-03-25T13:07:04;99579.59;;;14.90;40.84
71145;BME280;58812;47.698;17.726;2023-03-25T13:12:51;99591.16;;;15.27;40.31
71145;BME280;58812;47.698;17.726;2023-03-25T13:21:16;99591.72;;;15.43;40.21
71145;BME280;58812;47.698;17.726;2023-03-25T13:23:49;99577.38;;;15.64;40.54
71145;BME280;58812;47.698;17.726;2023-03-25T13:26:20;99583.25;;;16.37;40.18
71145;BME280;58812;47.698;17.726;2023-03-25T13:28:53;99583.09;;;15.83;38.86
71145;BME280;58812;47.698;17.726;2023-03-25T13:31:27;99574.19;;;16.17;39.04
71145;BME280;58812;47.698;17.726;2023-03-25T13:34:30;99578.47;;;16.05;38.88
71145;BME280;58812;47.698;17.726;2023-03-25T13:42:21;99577.81;;;15.46;41.32
71145;BME280;58812;47.698;17.726;2023-03-25T13:44:51;99584.66;;;15.21;39.23
71145;BME280;58812;47.698;17.726;2023-03-25T13:47:24;99581.63;;;15.09;39.55
71145;BME280;58812;47.698;17.726;2023-03-25T13:49:58;99584.03;;;15.19;39.49
71145;BME280;58812;47.698;17.726;2023-03-25T13:52:30;99583.09;;;15.12;38.48
71145;BME280;58812;47.698;17.726;2023-03-25T13:55:00;99574.37;;;15.10;38.31
71145;BME280;58812;47.698;17.726;2023-03-25T14:14:03;99587.94;;;15.16;39.81
71145;BME280;58812;47.698;17.726;2023-03-25T14:16:35;99582.22;;;15.26;40.44
71145;BME280;58812;47.698;17.726;2023-03-25T14:19:10;99580.97;;;15.50;39.89
71145;BME280;58812;47.698;17.726;2023-03-25T14:24:31;99573.91;;;16.05;40.82
71145;BME280;58812;47.698;17.726;2023-03-25T14:27:03;99576.53;;;15.92;38.77
71145;BME280;58812;47.698;17.726;2023-03-25T14:29:39;99566.56;;;15.64;39.06
71145;BME280;58812;47.698;17.726;2023-03-25T14:32:35;99568.19;;;15.87;39.44
71145;BME280;58812;47.698;17.726;2023-03-25T14:56:35;99542.88;;;15.10;39.46
71145;BME280;58812;47.698;17.726;2023-03-25T14:59:08;99550.00;;;15.18;39.62
71145;BME280;58812;47.698;17.726;2023-03-25T15:01:36;99542.75;;;15.18;39.25
71145;BME280;58812;47.698;17.726;2023-03-25T15:04:34;99550.44;;;15.21;39.73
71145;BME280;58812;47.698;17.726;2023-03-25T15:07:02;99543.47;;;15.34;40.50
71145;BME280;58812;47.698;17.726;2023-03-25T15:09:29;99540.94;;;15.26;40.12
71145;BME280;58812;47.698;17.726;2023-03-25T15:12:08;99540.22;;;15.38;39.93
71145;BME280;58812;47.698;17.726;2023-03-25T15:14:40;99534.56;;;15.33;40.00
71145;BME280;58812;47.698;17.726;2023-03-25T15:17:41;99533.88;;;15.25;39.01
71145;BME280;58812;47.698;17.726;2023-03-25T15:22:34;99521.56;;;15.15;39.40
71145;BME280;58812;47.698;17.726;2023-03-25T15:25:01;99525.81;;;15.03;39.41
71145;BME280;58812;47.698;17.726;2023-03-25T15:30:34;99511.13;;;15.34;39.31
71145;BME280;58812;47.698;17.726;2023-03-25T15:41:55;99493.03;;;15.84;37.23